Time;durP1;ratioP1;P1;durP2;ratioP2;P2;SDS_P1;SDS_P2;PMS_P1;PMS_P2;Temp;Humidity;BMP_temperature;BMP_pressure;BME280_temperature;BME280_humidity;BME280_pressure;Samples;Min_cycle;Max_cycle;Signal;HPM_P1;HPM_P2
2021/01/11 00:00:28;;;;;;;18.63;10.30;;;-3.00;73.20;;;-2.60;63.61;98153.63;5103766;28;20044;-44
2021/01/11 00:02:56;;;;;;;16.87;8.73;;;-3.10;73.10;;;-2.61;63.46;98148.47;5103822;28;20352;-42
2021/01/11 00:05:25;;;;;;;14.67;8.60;;;-3.10;72.50;;;-2.64;63.54;98148.59;5102262;28;20054;-42
2021/01/11 00:07:52;;;;;;;16.80;8.60;;;-3.10;72.40;;;-2.67;63.52;98144.38;5103558;28;20047;-42
2021/01/11 00:10:20;;;;;;;16.83;9.33;;;-3.10;72.60;;;-2.70;63.24;98154.09;5103536;28;20050;-42
2021/01/11 00:12:47;;;;;;;16.43;8.97;;;-3.20;72.40;;;-2.73;63.51;98149.88;5103535;28;20381;-42
2021/01/11 00:15:18;;;;;;;15.77;9.93;;;-3.20;72.60;;;-2.74;63.45;98152.53;5103046;28;20056;-42
2021/01/11 00:17:45;;;;;;;17.73;9.37;;;-3.30;72.60;;;-2.74;63.50;98161.19;5103437;28;20062;-42
2021/01/11 00:20:13;;;;;;;18.33;8.57;;;-3.30;72.70;;;-2.76;63.44;98152.59;5103427;28;20232;-42
2021/01/11 00:22:43;;;;;;;21.07;9.63;;;-3.20;72.60;;;-2.76;63.36;98155.19;5102244;28;20069;-42
2021/01/11 00:25:12;;;;;;;20.13;10.23;;;-3.30;72.70;;;-2.78;63.57;98147.44;5102694;28;20062;-42
2021/01/11 00:27:41;;;;;;;17.57;9.87;;;-3.30;72.50;;;-2.77;63.29;98148.31;5102783;28;20048;-42
2021/01/11 00:30:10;;;;;;;20.97;9.13;;;-3.30;72.80;;;-2.79;63.46;98150.13;5103204;28;20048;-42
2021/01/11 00:32:39;;;;;;;17.40;9.70;;;-3.30;72.60;;;-2.83;63.40;98157.22;5103179;28;20058;-42
2021/01/11 00:35:08;;;;;;;21.87;9.97;;;-3.40;72.90;;;-2.86;63.67;98152.13;5102500;28;20059;-42
2021/01/11 00:37:36;;;;;;;19.60;9.43;;;-3.40;73.30;;;-2.86;63.44;98162.56;5103056;28;20348;-42
2021/01/11 00:40:08;;;;;;;20.07;10.57;;;-3.40;73.50;;;-2.89;63.52;98156.63;5102928;28;20040;-43
2021/01/11 00:42:37;;;;;;;18.50;9.47;;;-3.40;73.00;;;-2.92;63.48;98151.56;5103033;28;20048;-42
2021/01/11 00:45:09;;;;;;;15.17;8.90;;;-3.50;73.10;;;-2.95;63.51;98139.50;5100865;28;20050;-43
2021/01/11 00:47:42;;;;;;;18.83;9.40;;;-3.50;73.40;;;-3.01;63.44;98144.97;5102728;28;20082;-42
2021/01/11 00:50:14;;;;;;;15.00;8.77;;;-3.50;73.40;;;-3.02;63.49;98140.69;5101960;28;20066;-42
2021/01/11 00:52:44;;;;;;;15.33;8.40;;;-3.60;72.50;;;-3.04;63.31;98145.94;5102993;28;20058;-42
2021/01/11 00:55:19;;;;;;;17.13;9.80;;;-3.50;73.00;;;-3.11;63.06;98147.09;5101318;28;20055;-42
2021/01/11 00:57:56;;;;;;;17.77;9.43;;;-3.70;73.40;;;-3.13;63.41;98142.88;5102619;28;20040;-42
2021/01/11 01:00:26;;;;;;;14.13;7.60;;;-3.70;73.40;;;-3.17;63.31;98145.59;5097280;28;20039;-42
2021/01/11 01:03:05;;;;;;;18.17;8.33;;;-3.70;73.20;;;-3.19;63.77;98141.38;5109340;28;20044;-42
2021/01/11 01:05:32;;;;;;;19.07;8.33;;;-3.70;73.80;;;-3.20;63.75;98143.16;5102060;28;20040;-42
2021/01/11 01:08:01;;;;;;;14.90;9.30;;;-3.70;73.80;;;-3.21;63.42;98138.00;5101118;28;20337;-42
2021/01/11 01:10:28;;;;;;;17.27;8.07;;;-3.70;73.60;;;-3.19;63.96;98146.59;5101291;28;20052;-42
2021/01/11 01:12:55;;;;;;;16.83;8.80;;;-3.70;74.00;;;-3.18;63.72;98143.06;5102369;28;20044;-42
2021/01/11 01:15:23;;;;;;;16.70;9.27;;;-3.60;74.00;;;-3.17;63.48;98143.00;5101929;28;20032;-42
2021/01/11 01:17:51;;;;;;;19.70;8.80;;;-3.60;73.80;;;-3.16;63.63;98138.63;5101621;28;20040;-43
2021/01/11 01:20:18;;;;;;;16.37;8.70;;;-3.60;73.60;;;-3.15;63.91;98147.31;5102250;28;20074;-42
2021/01/11 01:22:47;;;;;;;20.53;9.00;;;-3.60;73.60;;;-3.14;63.78;98152.47;5102228;28;20052;-42
2021/01/11 01:25:15;;;;;;;16.77;9.17;;;-3.60;73.50;;;-3.16;63.32;98151.66;5101761;28;20052;-42
2021/01/11 01:27:43;;;;;;;19.57;9.77;;;-3.70;72.90;;;-3.23;63.78;98153.69;5101745;28;20164;-43
2021/01/11 01:30:12;;;;;;;15.40;9.63;;;-3.70;73.30;;;-3.36;63.49;98155.91;5102063;28;20065;-42
2021/01/11 01:32:40;;;;;;;19.63;9.63;;;-3.90;74.50;;;-3.41;63.98;98164.84;5102133;28;20070;-42
2021/01/11 01:35:11;;;;;;;18.40;9.83;;;-4.00;74.60;;;-3.45;63.67;98163.25;5101643;28;20237;-43
2021/01/11 01:37:39;;;;;;;21.90;10.00;;;-4.00;75.60;;;-3.44;63.81;98173.63;5100879;28;20056;-42
2021/01/11 01:40:08;;;;;;;17.67;9.83;;;-4.00;75.60;;;-3.42;64.03;98165.75;5101041;28;20051;-42
2021/01/11 01:42:35;;;;;;;20.50;9.73;;;-3.90;75.20;;;-3.38;64.05;98168.16;5102008;28;20376;-42
2021/01/11 01:45:07;;;;;;;19.83;10.13;;;-3.80;75.10;;;-3.34;63.98;98168.88;5101563;28;20263;-42
2021/01/11 01:47:35;;;;;;;17.57;8.67;;;-3.80;74.30;;;-3.32;64.01;98168.84;5101808;28;20349;-43
2021/01/11 01:50:07;;;;;;;16.50;8.93;;;-3.80;74.20;;;-3.34;63.65;98168.88;5100552;28;20044;-42
2021/01/11 01:52:37;;;;;;;17.10;8.70;;;-3.80;73.90;;;-3.37;63.52;98166.44;5101960;28;20240;-47
2021/01/11 01:55:08;;;;;;;19.80;9.60;;;-3.90;73.80;;;-3.41;63.80;98165.69;5101628;28;20125;-48
2021/01/11 01:57:36;;;;;;;14.53;7.90;;;-3.90;73.90;;;-3.42;63.41;98166.59;5101251;28;20348;-47
2021/01/11 02:00:06;;;;;;;19.67;9.83;;;-3.90;73.60;;;-3.46;63.69;98154.59;5102027;28;20243;-48
2021/01/11 02:02:39;;;;;;;17.43;9.67;;;-4.00;73.50;;;-3.49;63.68;98152.16;5101940;28;20247;-45
2021/01/11 02:05:08;;;;;;;17.73;9.00;;;-4.00;73.60;;;-3.48;63.54;98158.19;5101382;28;20123;-46
2021/01/11 02:08:00;;;;;;;18.77;9.47;;;-4.00;73.30;;;-3.51;63.51;98155.69;5101625;28;20040;-46
2021/01/11 02:11:02;;;;;;;21.47;10.30;;;-4.00;72.80;;;-3.52;63.36;98141.00;5101752;28;20044;-46
2021/01/11 02:13:32;;;;;;;17.80;9.50;;;-4.10;73.50;;;-3.54;63.40;98138.47;5101963;28;20240;-46
2021/01/11 02:16:27;;;;;;;19.17;9.03;;;-4.00;73.50;;;-3.58;63.59;98131.69;5101249;28;20216;-46
2021/01/11 02:19:16;;;;;;;15.00;7.90;;;-4.10;73.30;;;-3.61;63.42;98137.00;5101809;28;20370;-48
2021/01/11 02:22:08;;;;;;;22.57;10.30;;;-4.10;72.70;;;-3.62;63.38;98140.53;5102069;28;20308;-46
2021/01/11 02:24:57;;;;;;;19.00;8.97;;;-4.10;73.10;;;-3.61;63.53;98131.78;5100380;28;20058;-46
2021/01/11 02:27:48;;;;;;;17.10;9.20;;;-4.10;72.60;;;-3.63;63.47;98137.06;5100327;28;20040;-48
2021/01/11 02:30:34;;;;;;;19.57;8.53;;;-4.10;72.70;;;-3.66;63.82;98121.59;5103366;28;20054;-46
2021/01/11 02:33:06;;;;;;;18.53;9.47;;;-4.20;73.00;;;-3.67;63.28;98127.69;5101834;28;20040;-47
2021/01/11 02:35:50;;;;;;;18.57;9.80;;;-4.10;73.20;;;-3.66;63.36;98121.59;5103195;28;20052;-47
2021/01/11 02:38:23;;;;;;;18.80;9.25;;;-4.10;72.90;;;-3.67;63.51;98122.47;5104591;28;20370;-47
2021/01/11 02:40:50;;;;;;;14.17;7.97;;;-4.20;72.40;;;-3.70;63.07;98124.34;5104283;28;20066;-49
2021/01/11 02:43:18;;;;;;;16.13;7.53;;;-4.20;72.50;;;-3.71;63.67;98128.72;5103110;28;20873;-47
2021/01/11 02:45:45;;;;;;;20.93;8.83;;;-4.20;72.70;;;-3.73;63.23;98129.69;5103367;28;20054;-46
2021/01/11 02:48:32;;;;;;;17.47;9.43;;;-4.30;72.40;;;-3.77;63.40;98126.34;5105485;28;20251;-46
2021/01/11 02:51:43;;;;;;;15.80;9.00;;;-4.30;73.40;;;-3.77;63.50;98128.97;5104045;28;20045;-46
2021/01/11 02:54:27;;;;;;;17.40;8.63;;;-4.30;73.50;;;-3.77;63.53;98131.56;5082113;28;20048;-48
2021/01/11 02:57:33;;;;;;;16.60;9.25;;;-4.20;73.40;;;-3.78;63.38;98133.31;5085090;28;20056;-49
2021/01/11 03:00:05;;;;;;;18.57;8.77;;;-4.30;73.60;;;-3.78;63.57;98146.34;5104029;28;20051;-46
2021/01/11 03:02:40;;;;;;;18.53;9.13;;;-4.20;73.50;;;-3.78;63.34;98142.88;5103852;28;20236;-47
2021/01/11 03:05:08;;;;;;;;;;;-4.30;73.40;;;-3.80;63.64;98137.75;5103828;28;20058;-47
2021/01/11 03:07:35;;;;;;;16.33;8.47;;;-4.30;72.80;;;-3.82;63.74;98129.16;5103785;28;19922;-47
2021/01/11 03:10:04;;;;;;;13.53;8.17;;;-4.30;73.00;;;-3.84;63.59;98136.19;5104821;28;20048;-48
2021/01/11 03:12:31;;;;;;;19.50;9.67;;;-4.40;73.30;;;-3.90;63.37;98138.16;5104587;28;20063;-47
2021/01/11 03:14:58;;;;;;;15.17;10.10;;;-4.40;73.90;;;-3.93;63.55;98139.13;5104439;28;20048;-47
2021/01/11 03:17:26;;;;;;;17.30;8.80;;;-4.50;74.50;;;-3.91;63.57;98133.88;5104574;28;20062;-46
2021/01/11 03:19:53;;;;;;;19.87;10.37;;;-4.40;74.50;;;-3.91;63.75;98132.09;5104610;28;20050;-46
2021/01/11 03:22:20;;;;;;;16.60;8.47;;;-4.40;74.30;;;-3.90;63.82;98135.53;5105055;28;20382;-47
2021/01/11 03:24:48;;;;;;;18.03;9.50;;;-4.40;74.20;;;-3.89;63.46;98132.91;5104172;28;20059;-46
2021/01/11 03:27:16;;;;;;;19.20;9.03;;;-4.40;74.20;;;-3.88;63.69;98136.34;5104297;28;20054;-49
2021/01/11 03:29:43;;;;;;;16.57;10.03;;;-4.40;74.40;;;-3.89;63.84;98138.09;5104370;28;20364;-46
2021/01/11 03:32:10;;;;;;;13.03;7.63;;;-4.40;74.00;;;-3.88;63.71;98139.78;5104223;28;20074;-47
2021/01/11 03:34:38;;;;;;;17.30;8.70;;;-4.40;73.40;;;-3.89;63.90;98130.28;5104085;28;20044;-46
2021/01/11 03:37:05;;;;;;;17.50;9.47;;;-4.40;73.30;;;-3.91;63.40;98126.06;5104049;28;20240;-47
2021/01/11 03:39:32;;;;;;;18.93;9.33;;;-4.40;73.40;;;-3.94;63.33;98120.97;5103350;28;20067;-46
2021/01/11 03:42:00;;;;;;;18.43;9.57;;;-4.40;73.30;;;-3.96;63.37;98124.47;5104242;28;20332;-47
2021/01/11 03:44:28;;;;;;;18.93;8.63;;;-4.50;73.00;;;-3.99;63.32;98126.38;5103791;28;20052;-47
2021/01/11 03:46:55;;;;;;;17.23;9.07;;;-4.50;73.10;;;-4.01;63.41;98126.41;5103496;28;20109;-48
2021/01/11 03:49:23;;;;;;;16.13;8.80;;;-4.50;73.80;;;-4.03;63.62;98132.56;5103994;28;20047;-46
2021/01/11 03:51:50;;;;;;;17.77;10.03;;;-4.60;72.60;;;-4.06;63.51;98132.69;5103111;28;20044;-47
2021/01/11 03:54:17;;;;;;;18.27;8.67;;;-4.60;74.20;;;-4.07;63.80;98139.66;5104502;28;20048;-50
2021/01/11 03:56:45;;;;;;;16.27;9.80;;;-4.60;74.00;;;-4.07;63.92;98131.84;5103453;28;20058;-46
2021/01/11 03:59:12;;;;;;;17.77;9.53;;;-4.50;73.90;;;-4.05;63.60;98137.84;5103906;28;20055;-47
2021/01/11 04:01:39;;;;;;;18.17;9.03;;;-4.50;73.80;;;-4.07;63.83;98131.84;5119576;28;20117;-48
2021/01/11 04:04:07;;;;;;;19.77;9.97;;;-4.60;72.70;;;-4.09;63.49;98128.47;5103784;28;20052;-46
2021/01/11 04:06:34;;;;;;;17.37;9.13;;;-4.60;73.90;;;-4.09;63.24;98114.59;5103077;28;20047;-48
2021/01/11 04:09:02;;;;;;;17.57;8.23;;;-4.60;73.80;;;-4.09;63.57;98123.25;5104024;28;20397;-46
2021/01/11 04:11:29;;;;;;;21.00;10.00;;;-4.60;73.60;;;-4.11;63.51;98127.69;5102482;28;20054;-46
2021/01/11 04:13:56;;;;;;;19.90;9.70;;;-4.60;73.40;;;-4.12;63.92;98133.78;5102341;28;20039;-46
2021/01/11 04:16:24;;;;;;;16.67;8.53;;;-4.70;73.50;;;-4.10;63.63;98133.72;5102952;28;20047;-47
2021/01/11 04:18:52;;;;;;;17.33;8.67;;;-4.60;73.60;;;-4.11;63.63;98129.41;5103299;28;20051;-47
2021/01/11 04:21:19;;;;;;;14.27;8.40;;;-4.50;73.10;;;-4.12;63.54;98131.16;5103387;28;20358;-46
2021/01/11 04:23:46;;;;;;;18.77;8.57;;;-4.60;73.50;;;-4.15;63.83;98128.69;5103301;28;20058;-49
2021/01/11 04:26:14;;;;;;;25.17;11.90;;;-4.60;73.10;;;-4.16;63.23;98138.25;5102861;28;20052;-47
2021/01/11 04:28:41;;;;;;;26.33;13.00;;;-4.70;73.20;;;-4.16;63.68;98129.59;5103192;28;20052;-45
2021/01/11 04:31:09;;;;;;;25.10;10.43;;;-4.60;73.20;;;-4.17;63.87;98135.69;5103150;28;20040;-51
2021/01/11 04:33:37;;;;;;;17.00;9.87;;;-4.60;73.20;;;-4.19;63.58;98133.16;5103226;28;20336;-47
2021/01/11 04:36:04;;;;;;;22.07;9.50;;;-4.70;73.00;;;-4.20;63.95;98138.44;5101582;28;20162;-45
2021/01/11 04:38:32;;;;;;;26.27;13.90;;;-4.70;73.20;;;-4.21;63.52;98136.72;5102080;28;20051;-48
2021/01/11 04:41:02;;;;;;;29.43;11.83;;;-4.70;73.10;;;-4.23;63.69;98136.75;5101582;28;20055;-46
2021/01/11 04:43:41;;;;;;;25.97;11.30;;;-4.70;72.70;;;-4.24;63.84;98134.25;5103472;28;20056;-49
2021/01/11 04:46:09;;;;;;;30.13;13.83;;;-4.80;72.30;;;-4.26;63.12;98129.09;5102775;28;20071;-46
2021/01/11 04:48:37;;;;;;;32.27;14.93;;;-4.80;72.40;;;-4.31;62.96;98136.22;5101688;28;20348;-50
2021/01/11 04:51:05;;;;;;;26.87;12.83;;;-4.90;72.60;;;-4.35;63.20;98132.03;5102717;28;20366;-48
2021/01/11 04:53:35;;;;;;;24.97;11.50;;;-5.00;73.20;;;-4.35;63.70;98125.06;5102757;28;20338;-45
2021/01/11 04:56:04;;;;;;;23.77;12.03;;;-4.90;73.70;;;-4.31;63.84;98125.81;5102259;28;20044;-46
2021/01/11 04:58:55;;;;;;;21.03;10.17;;;-4.80;73.80;;;-4.29;63.93;98126.59;5102692;28;20047;-45
2021/01/11 05:01:28;;;;;;;18.83;9.50;;;-4.70;73.50;;;-4.27;63.77;98119.59;5102690;28;20052;-46
2021/01/11 05:04:00;;;;;;;22.02;9.20;;;-4.70;73.40;;;-4.23;63.95;98120.31;5102427;28;20050;-47
2021/01/11 05:06:28;;;;;;;20.47;9.27;;;-4.60;73.50;;;-4.21;63.74;98114.16;5102137;28;20056;-47
2021/01/11 05:09:07;;;;;;;23.00;10.10;;;-4.60;73.50;;;-4.18;63.61;98114.03;5102506;28;20050;-47
2021/01/11 05:11:35;;;;;;;18.87;8.97;;;-4.60;73.70;;;-4.17;63.80;98107.97;5102441;28;20359;-47
2021/01/11 05:14:02;;;;;;;15.67;8.17;;;-4.50;73.70;;;-4.13;63.96;98115.63;5102317;28;20043;-50
2021/01/11 05:16:30;;;;;;;19.70;10.33;;;-4.50;73.70;;;-4.16;63.78;98108.78;5101919;28;20070;-46
2021/01/11 05:19:22;;;;;;;15.33;8.03;;;-4.60;73.20;;;-4.16;63.44;98106.19;5102385;28;20044;-48
2021/01/11 05:21:50;;;;;;;23.43;9.30;;;-4.60;72.70;;;-4.21;63.31;98113.31;5118125;28;20240;-46
2021/01/11 05:24:38;;;;;;;15.77;8.63;;;-4.80;72.10;;;-4.33;63.50;98104.22;5102225;28;20050;-48
2021/01/11 05:27:08;;;;;;;24.47;10.00;;;-4.80;73.30;;;-4.36;63.34;98113.00;5102586;27;20052;-47
2021/01/11 05:29:38;;;;;;;16.57;8.63;;;-4.90;73.60;;;-4.36;63.93;98117.34;5102406;28;20046;-48
2021/01/11 05:32:10;;;;;;;21.47;11.20;;;-4.90;73.40;;;-4.37;63.74;98113.88;5116610;22;20044;-42
2021/01/11 05:34:52;;;;;;;20.23;9.87;;;-4.90;73.80;;;-4.40;63.97;98116.63;5101873;28;20351;-42
2021/01/11 05:37:51;;;;;;;20.77;9.90;;;-5.00;74.20;;;-4.47;63.63;98116.91;5102099;28;20051;-42
2021/01/11 05:40:20;;;;;;;22.00;10.97;;;-5.00;74.30;;;-4.48;63.73;98123.81;5097117;28;20052;-41
2021/01/11 05:43:00;;;;;;;20.90;11.07;;;-5.00;74.70;;;-4.46;63.92;98118.56;5100695;28;20058;-42
2021/01/11 05:45:33;;;;;;;23.57;11.80;;;-5.00;74.20;;;-4.45;63.75;98122.88;5101289;28;20250;-42
2021/01/11 05:48:08;;;;;;;19.33;10.73;;;-5.00;74.00;;;-4.42;64.28;98126.22;5101992;28;20373;-42
2021/01/11 05:50:47;;;;;;;22.30;10.73;;;-4.90;74.40;;;-4.40;64.20;98124.41;5102001;28;20044;-42
2021/01/11 05:53:25;;;;;;;22.90;11.73;;;-4.90;73.90;;;-4.41;63.54;98127.06;5101837;28;20048;-42
2021/01/11 05:55:56;;;;;;;21.20;11.23;;;-4.90;73.50;;;-4.49;63.90;98123.91;5101469;28;20052;-42
2021/01/11 05:58:27;;;;;;;24.17;11.63;;;-5.00;74.10;;;-4.48;64.25;98126.44;5101928;28;20235;-42
2021/01/11 06:00:55;;;;;;;21.60;11.13;;;-5.00;74.50;;;-4.47;63.82;98130.72;5099188;28;20054;-42
2021/01/11 06:03:22;;;;;;;24.93;11.13;;;-5.00;74.30;;;-4.47;63.72;98135.09;5103725;28;20058;-42
2021/01/11 06:05:49;;;;;;;22.03;11.13;;;-5.00;74.40;;;-4.50;63.88;98138.63;5105525;28;20039;-42
2021/01/11 06:08:17;;;;;;;25.83;12.20;;;-5.00;74.50;;;-4.47;64.03;98130.72;5105951;28;20047;-42
2021/01/11 06:10:44;;;;;;;23.07;11.33;;;-5.00;74.60;;;-4.43;63.82;98129.72;5105521;28;20064;-42
2021/01/11 06:13:12;;;;;;;16.43;8.47;;;-4.90;75.00;;;-4.39;64.01;98128.69;5105882;28;20043;-42
2021/01/11 06:15:40;;;;;;;20.73;9.73;;;-4.80;74.70;;;-4.35;64.19;98126.84;5105584;28;20054;-42
2021/01/11 06:18:12;;;;;;;18.17;9.03;;;-4.80;74.20;;;-4.33;64.27;98134.59;5103397;28;20048;-43
2021/01/11 06:20:45;;;;;;;18.23;10.17;;;-4.80;73.80;;;-4.33;63.92;98132.81;5104641;28;20050;-42
2021/01/11 06:23:26;;;;;;;18.00;9.10;;;-4.80;73.20;;;-4.34;63.75;98138.94;5104237;28;20225;-42
2021/01/11 06:25:53;;;;;;;19.13;9.13;;;-4.80;73.80;;;-4.35;64.15;98126.84;5105338;28;20058;-42
2021/01/11 06:28:33;;;;;;;21.97;10.23;;;-4.80;73.90;;;-4.37;64.29;98126.88;5105546;28;20044;-42
2021/01/11 06:31:14;;;;;;;18.03;9.17;;;-4.80;73.80;;;-4.35;64.37;98129.44;5105356;28;20044;-42
2021/01/11 06:33:43;;;;;;;19.17;9.53;;;-4.80;73.60;;;-4.36;64.01;98131.19;5105416;28;20048;-42
2021/01/11 06:36:39;;;;;;;23.53;11.93;;;-4.80;73.60;;;-4.35;63.79;98125.06;5103392;28;20060;-42
2021/01/11 06:39:09;;;;;;;26.20;11.97;;;-4.80;73.60;;;-4.35;64.10;98126.84;5105414;28;20247;-42
2021/01/11 06:41:37;;;;;;;35.00;18.93;;;-4.80;73.90;;;-4.33;64.29;98124.19;5105361;28;20328;-42
2021/01/11 06:44:09;;;;;;;21.40;10.87;;;-4.80;74.00;;;-4.31;63.89;98131.00;5105318;28;20050;-42
2021/01/11 06:46:42;;;;;;;19.37;9.83;;;-4.70;73.90;;;-4.29;64.56;98126.59;5104643;28;20059;-42
2021/01/11 06:49:25;;;;;;;20.57;9.20;;;-4.70;74.60;;;-4.28;64.00;98127.47;5105182;28;20213;-42
2021/01/11 06:52:08;;;;;;;26.67;11.53;;;-4.70;73.50;;;-4.28;63.95;98132.66;5104039;28;20044;-41
2021/01/11 06:54:46;;;;;;;38.87;18.03;;;-4.70;73.00;;;-4.31;64.10;98123.22;5105035;28;20236;-42
2021/01/11 06:57:19;;;;;;;76.20;29.67;;;-4.80;73.10;;;-4.35;64.25;98122.47;5104960;28;20055;-43
2021/01/11 06:59:50;;;;;;;51.15;35.97;;;-4.80;73.20;;;-4.35;64.14;98121.63;5105085;28;20270;-42
2021/01/11 07:02:20;;;;;;;71.07;32.50;;;-4.80;73.60;;;-4.37;64.35;98128.66;5104196;28;20054;-42
2021/01/11 07:04:49;;;;;;;32.23;15.53;;;-4.90;73.80;;;-4.35;64.50;98127.66;5104434;28;20362;-43
2021/01/11 07:07:19;;;;;;;20.93;11.40;;;-4.80;74.10;;;-4.33;64.01;98129.38;5104706;28;20227;-43
2021/01/11 07:10:01;;;;;;;21.30;10.00;;;-4.80;74.20;;;-4.32;64.19;98123.25;5104821;28;20044;-42
2021/01/11 07:12:29;;;;;;;20.43;10.40;;;-4.80;74.20;;;-4.30;64.45;98121.44;5104501;28;20058;-42
2021/01/11 07:15:02;;;;;;;21.97;12.03;;;-4.70;74.20;;;-4.26;64.07;98130.84;5102853;28;20059;-42
2021/01/11 07:17:48;;;;;;;17.30;9.90;;;-4.70;74.10;;;-4.24;64.19;98132.47;5104262;28;20052;-43
2021/01/11 07:20:37;;;;;;;17.90;9.83;;;-4.70;74.10;;;-4.25;63.96;98135.97;5102763;28;20062;-42
2021/01/11 07:23:04;;;;;;;17.70;8.80;;;-4.70;74.00;;;-4.21;64.19;98144.50;5104502;28;20338;-42
2021/01/11 07:25:32;;;;;;;16.87;7.90;;;-4.70;73.90;;;-4.21;64.56;98137.56;5103711;28;20048;-43
2021/01/11 07:28:03;;;;;;;17.23;8.13;;;-4.60;73.70;;;-4.19;64.04;98142.69;5103185;28;20040;-42
2021/01/11 07:30:34;;;;;;;17.13;8.97;;;-4.60;73.50;;;-4.19;63.82;98140.97;5104155;28;20285;-42
2021/01/11 07:33:11;;;;;;;17.90;8.60;;;-4.60;73.50;;;-4.20;64.41;98141.88;5104032;28;20043;-42
2021/01/11 07:35:42;;;;;;;14.30;7.57;;;-4.60;73.50;;;-4.16;64.04;98138.25;5103438;28;20065;-43
2021/01/11 07:38:12;;;;;;;17.97;8.83;;;-4.60;73.40;;;-4.16;63.71;98140.84;5104171;28;20043;-43
2021/01/11 07:40:40;;;;;;;13.27;7.70;;;-4.60;73.40;;;-4.16;64.39;98138.25;5102193;28;20065;-43
2021/01/11 07:43:07;;;;;;;15.03;8.23;;;-4.60;73.30;;;-4.14;64.15;98143.38;5104677;27;20056;-42
2021/01/11 07:45:35;;;;;;;16.73;8.60;;;-4.60;73.50;;;-4.14;64.01;98143.38;5102982;28;20048;-42
2021/01/11 07:48:02;;;;;;;17.67;8.17;;;-4.60;73.50;;;-4.11;64.37;98145.00;5102459;28;20052;-43
2021/01/11 07:50:30;;;;;;;18.23;9.47;;;-4.50;73.70;;;-4.09;64.07;98151.88;5103933;28;20040;-42
2021/01/11 07:52:58;;;;;;;23.23;12.27;;;-4.50;73.50;;;-4.05;64.40;98157.78;5103772;28;20055;-42
2021/01/11 07:55:29;;;;;;;19.27;10.10;;;-4.50;73.30;;;-4.03;64.08;98171.56;5103436;28;20050;-43
2021/01/11 07:58:03;;;;;;;18.47;9.87;;;-4.40;73.30;;;-4.02;63.99;98170.69;5103818;28;20059;-42
2021/01/11 08:00:31;;;;;;;;;;;-4.40;73.30;;;-4.01;64.24;98175.00;5104292;28;20052;-41
2021/01/11 08:02:58;;;;;;;17.43;9.47;;;-4.40;73.10;;;-4.00;64.26;98174.91;5100979;28;19922;-42
2021/01/11 08:05:31;;;;;;;16.93;8.80;;;-4.40;73.10;;;-3.99;64.33;98173.19;5103192;28;20243;-42
2021/01/11 08:08:06;;;;;;;18.90;8.97;;;-4.40;73.10;;;-3.98;64.37;98175.69;5103611;28;20101;-41
2021/01/11 08:10:35;;;;;;;18.27;9.03;;;-4.30;73.00;;;-3.96;64.29;98176.50;5103631;28;20055;-42
2021/01/11 08:13:09;;;;;;;20.17;10.23;;;-4.30;72.80;;;-3.94;64.36;98171.22;5102466;28;20047;-42
2021/01/11 08:15:36;;;;;;;19.63;10.27;;;-4.30;72.90;;;-3.91;64.00;98176.34;5102994;28;20058;-42
2021/01/11 08:18:05;;;;;;;16.27;8.87;;;-4.20;73.00;;;-3.86;64.37;98176.16;5103454;28;20298;-42
2021/01/11 08:20:32;;;;;;;16.90;7.63;;;-4.20;73.00;;;-3.83;64.16;98168.22;5103317;28;20051;-42
2021/01/11 08:23:09;;;;;;;18.00;8.77;;;-4.20;73.20;;;-3.79;64.52;98160.25;5102983;28;20062;-42
2021/01/11 08:25:38;;;;;;;18.80;7.83;;;-4.10;73.20;;;-3.74;64.09;98156.59;5102458;28;20054;-42
2021/01/11 08:28:11;;;;;;;13.90;8.17;;;-4.10;73.70;;;-3.75;64.08;98163.56;5103225;28;20044;-42
2021/01/11 08:30:39;;;;;;;19.53;8.27;;;-4.10;72.90;;;-3.76;64.30;98170.53;5101924;28;20052;-42
2021/01/11 08:33:07;;;;;;;19.00;8.90;;;-4.10;73.00;;;-3.74;64.14;98170.50;5103248;28;20047;-42
2021/01/11 08:35:35;;;;;;;17.30;7.37;;;-4.10;73.10;;;-3.74;64.26;98170.50;5101630;28;20339;-42
2021/01/11 08:38:05;;;;;;;17.00;9.47;;;-4.10;73.10;;;-3.73;63.98;98163.53;5102835;28;20114;-42
2021/01/11 08:40:33;;;;;;;15.87;9.43;;;-4.20;73.10;;;-3.72;64.17;98168.66;5102439;28;20055;-42
2021/01/11 08:43:19;;;;;;;24.97;11.73;;;-4.10;73.20;;;-3.66;64.37;98176.22;5102843;28;20051;-42
2021/01/11 08:45:52;;;;;;;18.10;9.73;;;-4.00;73.00;;;-3.63;64.62;98175.25;5102470;28;20254;-44
2021/01/11 08:48:26;;;;;;;17.75;8.82;;;-4.00;72.90;;;-3.61;64.35;98174.28;5102929;28;20048;-43
2021/01/11 08:50:54;;;;;;;22.45;10.13;;;-3.90;73.10;;;-3.53;64.60;98162.72;5102882;28;20051;-42
2021/01/11 08:53:29;;;;;;;16.57;8.87;;;-3.90;73.10;;;-3.50;64.55;98155.66;5102737;28;20062;-42
2021/01/11 08:56:03;;;;;;;19.90;9.47;;;-3.80;72.90;;;-3.53;64.19;98173.13;5102335;28;20239;-42
2021/01/11 08:58:32;;;;;;;16.20;8.33;;;-3.80;72.80;;;-3.50;64.76;98179.06;5102724;28;20062;-42
2021/01/11 09:01:17;;;;;;;16.03;8.10;;;-3.70;73.10;;;-3.44;64.51;98178.81;5101824;28;20055;-42
2021/01/11 09:03:55;;;;;;;16.00;8.63;;;-3.70;73.00;;;-3.40;64.65;98169.97;5101547;28;20056;-42
2021/01/11 09:06:44;;;;;;;16.23;8.17;;;-3.70;73.10;;;-3.35;64.40;98159.41;5101054;28;20048;-42
2021/01/11 09:09:20;;;;;;;14.80;7.73;;;-3.60;73.30;;;-3.31;64.71;98158.34;5078422;28;20059;-42
2021/01/11 09:11:49;;;;;;;16.33;8.33;;;-3.50;73.30;;;-3.23;64.78;98168.47;5081374;28;20045;-42
2021/01/11 09:14:18;;;;;;;20.43;8.30;;;-3.40;73.10;;;-3.19;64.94;98183.91;5080619;28;20055;-42
2021/01/11 09:16:54;;;;;;;16.50;8.33;;;-3.40;73.00;;;-3.12;64.99;98188.84;5081251;28;20044;-42
2021/01/11 09:20:12;;;;;;;16.20;8.03;;;-3.40;73.10;;;-3.07;64.61;98202.53;5080601;28;20052;-42
2021/01/11 09:22:40;;;;;;;15.97;7.63;;;-3.30;73.30;;;-3.02;64.71;98205.81;5100330;28;20047;-43
2021/01/11 09:25:11;;;;;;;17.13;8.73;;;-3.30;73.10;;;-2.98;64.63;98199.56;5101517;28;20044;-43
2021/01/11 09:27:40;;;;;;;15.67;8.13;;;-3.20;72.80;;;-2.94;64.63;98190.69;5101902;28;20054;-44
2021/01/11 09:30:09;;;;;;;15.13;7.90;;;-3.20;73.00;;;-2.89;64.85;98193.97;5101047;28;20050;-42
2021/01/11 09:32:37;;;;;;;18.70;9.20;;;-3.10;73.20;;;-2.85;64.76;98194.66;5102088;28;20050;-42
2021/01/11 09:35:05;;;;;;;17.97;8.47;;;-3.10;73.00;;;-2.79;64.78;98210.06;5101676;28;20062;-43
2021/01/11 09:37:32;;;;;;;14.73;7.07;;;-3.00;72.80;;;-2.76;64.83;98202.09;5101589;28;20048;-43
2021/01/11 09:40:00;;;;;;;14.37;7.83;;;-3.00;72.40;;;-2.69;64.68;98202.72;5102083;28;20065;-43
2021/01/11 09:42:27;;;;;;;13.77;7.90;;;-2.90;72.40;;;-2.67;64.79;98187.84;5102059;28;20044;-43
2021/01/11 09:44:55;;;;;;;17.57;8.63;;;-2.90;72.50;;;-2.63;64.67;98194.63;5101724;28;20048;-43
2021/01/11 09:47:23;;;;;;;19.40;8.73;;;-2.80;72.60;;;-2.57;64.55;98196.97;5101964;28;20047;-42
2021/01/11 09:49:51;;;;;;;18.70;8.57;;;-2.80;72.40;;;-2.53;64.49;98198.53;5101981;28;20050;-43
2021/01/11 09:52:18;;;;;;;15.90;8.13;;;-2.70;72.20;;;-2.47;64.43;98200.03;5102237;28;20262;-42
2021/01/11 09:54:46;;;;;;;14.30;7.47;;;-2.70;72.20;;;-2.44;64.60;98198.13;5101737;28;20050;-43
2021/01/11 09:57:13;;;;;;;24.13;8.83;;;-2.60;72.20;;;-2.40;64.86;98207.50;5102094;28;20058;-44
2021/01/11 09:59:41;;;;;;;19.60;8.93;;;-2.60;72.30;;;-2.37;64.60;98196.91;5102013;28;20052;-42
2021/01/11 10:02:10;;;;;;;16.20;8.40;;;-2.50;72.30;;;-2.32;64.70;98199.34;5100914;28;20047;-43
2021/01/11 10:04:37;;;;;;;14.33;7.70;;;-2.50;72.00;;;-2.28;64.54;98195.69;5101807;28;20044;-42
2021/01/11 10:07:07;;;;;;;14.73;7.47;;;-2.40;71.80;;;-2.25;64.57;98195.56;5101528;28;20036;-44
2021/01/11 10:09:35;;;;;;;17.30;8.60;;;-2.40;71.70;;;-2.20;64.50;98190.13;5102271;28;20054;-42
2021/01/11 10:12:05;;;;;;;14.63;7.73;;;-2.40;71.60;;;-2.16;64.61;98183.03;5101837;28;20050;-42
2021/01/11 10:14:32;;;;;;;15.50;8.33;;;-2.30;71.40;;;-2.11;64.35;98188.84;5101834;28;20055;-43
2021/01/11 10:17:01;;;;;;;14.97;7.67;;;-2.30;71.50;;;-2.11;63.55;98188.84;5098999;28;20051;-45
2021/01/11 10:19:30;;;;;;;19.57;8.33;;;-2.30;71.10;;;-2.08;64.20;98197.41;5100285;28;20054;-43
2021/01/11 10:22:02;;;;;;;12.43;7.37;;;-2.30;71.30;;;-2.05;64.38;98192.06;5100555;28;20048;-43
2021/01/11 10:24:29;;;;;;;16.07;7.77;;;-2.20;71.00;;;-2.01;63.82;98191.00;5101685;28;20352;-43
2021/01/11 10:26:57;;;;;;;17.13;9.00;;;-2.20;70.80;;;-1.95;64.01;98187.25;5101236;28;20044;-42
2021/01/11 10:29:25;;;;;;;14.77;7.80;;;-2.10;71.00;;;-1.92;64.41;98181.91;5100589;28;20044;-43